Terminal Aerodrome Forecast
Issued by NWS

Home | Current Version | Previous Version | Text Only | Print | Product List | Glossary Off
Versions: 1 2 3 4 5 6 7 8 9 10 11 12 13 14 15 16 17 18 19 20 21 22 23 24 25 26 27 28 29 30 31 32 33

109
FTUS43 KLOT 250129 AAB
TAFORD
TAF AMD
KORD 250129Z 2501/2606 18010KT P6SM SCT025 BKN150
      TEMPO 2502/2503 3SM TSRA BKN025CB
     FM250300 32007KT P6SM BKN200
     FM251400 33008KT P6SM FEW050 SCT250
     FM260100 VRB03KT P6SM SKC=

USA.gov is the U.S. government's official web portal to all federal, state and local government web resources and services.